createdAt,value
2023-04-06T00:01:09.562Z,66
2023-04-06T00:03:15.677Z,65
2023-04-06T00:05:09.548Z,65
2023-04-06T00:07:09.550Z,65
2023-04-06T00:09:12.508Z,65
2023-04-06T00:11:12.743Z,65
2023-04-06T00:15:12.446Z,67
2023-04-06T00:17:11.112Z,67
2023-04-06T00:19:09.654Z,67
2023-04-06T00:23:09.426Z,67
2023-04-06T00:25:09.657Z,67
2023-04-06T00:27:09.541Z,67
2023-04-06T00:29:09.689Z,67
2023-04-06T00:31:12.592Z,66
2023-04-06T00:33:09.664Z,66
2023-04-06T00:35:09.196Z,68
2023-04-06T00:37:12.690Z,68
2023-04-06T00:39:09.983Z,68
2023-04-06T00:41:12.538Z,67
2023-04-06T00:43:09.500Z,67
2023-04-06T00:45:07.897Z,67
2023-04-06T00:47:09.515Z,68
2023-04-06T00:49:09.692Z,67
2023-04-06T00:51:09.520Z,67
2023-04-06T00:53:09.429Z,67
2023-04-06T00:55:09.498Z,68
2023-04-06T00:57:11.081Z,67
2023-04-06T01:01:09.508Z,69
2023-04-06T01:03:09.502Z,68
2023-04-06T01:05:12.782Z,69
2023-04-06T01:07:09.558Z,68
2023-04-06T01:09:09.773Z,67
2023-04-06T01:11:09.459Z,68
2023-04-06T01:13:12.707Z,68
2023-04-06T01:15:09.547Z,68
2023-04-06T01:17:12.515Z,69
2023-04-06T01:19:09.599Z,67
2023-04-06T01:21:12.762Z,67
2023-04-06T01:23:12.816Z,67
2023-04-06T01:25:09.579Z,67
2023-04-06T01:27:09.538Z,68
2023-04-06T01:29:09.699Z,68
2023-04-06T01:31:09.514Z,68
2023-04-06T01:33:09.544Z,68
2023-04-06T01:35:09.221Z,69
2023-04-06T01:37:10.250Z,69
2023-04-06T01:39:09.710Z,69
2023-04-06T01:41:09.206Z,69
2023-04-06T01:43:09.422Z,69
2023-04-06T01:45:09.242Z,69
2023-04-06T01:47:09.500Z,69
2023-04-06T01:49:09.703Z,69
2023-04-06T01:51:09.201Z,68
2023-04-06T01:53:09.295Z,69
2023-04-06T01:55:09.799Z,69
2023-04-06T01:57:12.734Z,70
2023-04-06T01:59:09.829Z,70
2023-04-06T02:01:09.471Z,70
2023-04-06T02:03:09.470Z,70
2023-04-06T02:05:09.837Z,71
2023-04-06T02:07:09.559Z,70
2023-04-06T02:09:09.957Z,70
2023-04-06T02:11:09.517Z,70
2023-04-06T02:13:09.755Z,70
2023-04-06T02:15:09.476Z,70
2023-04-06T02:17:12.819Z,71
2023-04-06T02:23:11.250Z,72
2023-04-06T02:25:09.585Z,72
2023-04-06T02:27:09.468Z,72
2023-04-06T02:29:09.614Z,72
2023-04-06T02:31:09.368Z,72
2023-04-06T02:33:07.133Z,72
2023-04-06T02:35:09.510Z,72
2023-04-06T02:37:12.447Z,72
2023-04-06T02:39:09.675Z,72
2023-04-06T02:41:12.800Z,72
2023-04-06T02:43:09.784Z,72
2023-04-06T02:45:15.857Z,72
2023-04-06T02:47:09.482Z,72
2023-04-06T02:49:15.569Z,72
2023-04-06T02:51:09.519Z,72
2023-04-06T02:53:09.322Z,73
2023-04-06T02:57:09.503Z,72
2023-04-06T02:59:09.781Z,72
2023-04-06T03:01:09.626Z,73
2023-04-06T03:03:09.670Z,73
2023-04-06T03:05:09.494Z,74
2023-04-06T03:07:09.578Z,74
2023-04-06T03:09:09.760Z,74
2023-04-06T03:11:12.837Z,74
2023-04-06T03:13:09.536Z,74
2023-04-06T03:15:09.596Z,74
2023-04-06T03:17:12.663Z,73
2023-04-06T03:19:12.736Z,74
2023-04-06T03:21:09.549Z,74
2023-04-06T03:23:10.144Z,75
2023-04-06T03:25:09.671Z,74
2023-04-06T03:27:14.400Z,74
2023-04-06T03:29:09.265Z,75
2023-04-06T03:31:09.514Z,74
2023-04-06T03:35:09.534Z,75
2023-04-06T03:37:10.581Z,75
2023-04-06T03:39:10.304Z,75
2023-04-06T03:41:09.523Z,75
2023-04-06T03:43:09.491Z,74
2023-04-06T03:45:09.284Z,75
2023-04-06T03:47:09.445Z,75
2023-04-06T03:49:09.971Z,76
2023-04-06T03:53:12.739Z,77
2023-04-06T03:55:12.626Z,77
2023-04-06T03:57:09.434Z,77
2023-04-06T03:59:09.627Z,77
2023-04-06T04:01:12.556Z,77
2023-04-06T04:03:09.843Z,77
2023-04-06T04:05:12.868Z,77
2023-04-06T04:07:09.780Z,77
2023-04-06T04:09:09.719Z,77
2023-04-06T04:13:09.513Z,76
2023-04-06T04:15:09.592Z,76
2023-04-06T04:19:09.714Z,76
2023-04-06T04:21:06.729Z,76
2023-04-06T04:23:09.532Z,77
2023-04-06T04:27:12.761Z,77
2023-04-06T04:29:09.745Z,76
2023-04-06T04:31:09.506Z,76
2023-04-06T04:33:09.574Z,76
2023-04-06T04:37:12.713Z,77
2023-04-06T04:39:09.715Z,77
2023-04-06T04:41:09.827Z,77
2023-04-06T04:43:09.842Z,77
2023-04-06T04:45:09.505Z,77
2023-04-06T04:47:12.766Z,77
2023-04-06T04:49:09.710Z,77
2023-04-06T04:51:09.599Z,77
2023-04-06T04:53:09.543Z,77
2023-04-06T04:57:09.599Z,77
2023-04-06T05:01:09.769Z,77
2023-04-06T05:03:13.054Z,77
2023-04-06T05:05:09.528Z,77
2023-04-06T05:07:12.431Z,77
2023-04-06T05:09:12.557Z,77
2023-04-06T05:13:12.708Z,77
2023-04-06T05:15:09.537Z,77
2023-04-06T05:17:09.555Z,77
2023-04-06T05:19:12.499Z,77
2023-04-06T05:21:09.294Z,77
2023-04-06T05:25:09.839Z,78
2023-04-06T05:29:09.841Z,77
2023-04-06T05:31:15.711Z,78
2023-04-06T05:33:09.917Z,78
2023-04-06T05:35:09.861Z,78
2023-04-06T05:37:12.691Z,77
2023-04-06T05:41:12.585Z,77
2023-04-06T05:43:12.700Z,77
2023-04-06T05:45:11.317Z,77
2023-04-06T05:47:09.801Z,76
2023-04-06T05:49:09.880Z,77
2023-04-06T05:51:09.555Z,76
2023-04-06T05:53:14.270Z,76
2023-04-06T05:55:10.732Z,76
2023-04-06T05:57:09.578Z,76
2023-04-06T05:59:09.672Z,76
2023-04-06T06:01:09.292Z,75
2023-04-06T06:03:09.619Z,75
2023-04-06T06:07:09.298Z,74
2023-04-06T06:09:09.621Z,76
2023-04-06T06:11:09.502Z,77
2023-04-06T06:15:09.449Z,77
2023-04-06T06:17:12.433Z,77
2023-04-06T06:19:09.628Z,77
2023-04-06T06:21:12.561Z,76
2023-04-06T06:23:09.485Z,75
2023-04-06T06:25:09.786Z,74
2023-04-06T06:27:09.595Z,74
2023-04-06T06:29:09.773Z,72
2023-04-06T06:31:13.545Z,62
2023-04-06T06:33:09.551Z,60
2023-04-06T06:35:09.553Z,58
2023-04-06T06:37:09.796Z,57
2023-04-06T06:39:09.519Z,56
2023-04-06T06:41:09.543Z,56
2023-04-06T06:45:09.760Z,56
2023-04-06T06:49:09.783Z,55
2023-04-06T06:51:09.556Z,54
2023-04-06T06:53:09.553Z,55
2023-04-06T06:55:09.618Z,55
2023-04-06T06:57:09.400Z,56
2023-04-06T07:01:09.621Z,56
2023-04-06T07:03:08.135Z,57
2023-04-06T07:05:24.184Z,56
2023-04-06T07:07:09.537Z,57
2023-04-06T07:11:09.603Z,56
2023-04-06T07:13:09.300Z,56
2023-04-06T07:15:09.506Z,56
2023-04-06T07:17:09.880Z,57
2023-04-06T07:19:09.511Z,58
2023-04-06T07:21:10.102Z,57
2023-04-06T07:23:12.564Z,58
2023-04-06T07:25:09.868Z,59
2023-04-06T07:27:13.048Z,57
2023-04-06T07:33:13.037Z,55
2023-04-06T07:35:09.534Z,54
2023-04-06T07:37:09.599Z,57
2023-04-06T07:43:11.149Z,54
2023-04-06T07:45:09.319Z,55
2023-04-06T07:47:09.561Z,54
2023-04-06T07:49:09.643Z,53
2023-04-06T07:51:12.796Z,53
2023-04-06T07:53:12.708Z,54
2023-04-06T07:55:09.569Z,54
2023-04-06T07:57:09.556Z,53
2023-04-06T08:03:09.624Z,53
2023-04-06T08:05:09.856Z,53
2023-04-06T08:07:09.709Z,53
2023-04-06T08:11:12.746Z,52
2023-04-06T08:13:12.734Z,52
2023-04-06T08:17:11.345Z,50
2023-04-06T08:19:09.728Z,52
2023-04-06T08:21:12.762Z,54
2023-04-06T08:23:08.117Z,52
2023-04-06T08:25:09.640Z,52
2023-04-06T08:27:09.658Z,52
2023-04-06T08:29:09.539Z,53
2023-04-06T08:31:09.590Z,53
2023-04-06T08:33:09.676Z,52
2023-04-06T08:35:09.863Z,54
2023-04-06T08:37:09.772Z,50
2023-04-06T08:39:09.581Z,51
2023-04-06T08:41:09.575Z,52
2023-04-06T08:43:11.168Z,53
2023-04-06T08:47:09.586Z,51
2023-04-06T08:49:09.570Z,51
2023-04-06T08:51:09.626Z,51
2023-04-06T08:53:09.597Z,50
2023-04-06T08:55:09.589Z,49
2023-04-06T08:57:09.874Z,48
2023-04-06T08:59:12.997Z,49
2023-04-06T09:01:09.618Z,48
2023-04-06T09:05:13.068Z,50
2023-04-06T09:07:09.567Z,49
2023-04-06T09:09:06.778Z,47
2023-04-06T09:11:09.558Z,48
2023-04-06T09:13:09.511Z,47
2023-04-06T09:15:12.987Z,48
2023-04-06T09:17:12.836Z,48
2023-04-06T09:19:09.609Z,46
2023-04-06T09:21:09.554Z,46
2023-04-06T09:23:09.851Z,47
2023-04-06T09:25:13.217Z,47
2023-04-06T09:27:13.106Z,48
2023-04-06T09:29:12.756Z,48
2023-04-06T09:31:09.596Z,48
2023-04-06T09:33:12.774Z,47
2023-04-06T09:35:09.578Z,50
2023-04-06T09:37:12.559Z,46
2023-04-06T09:39:09.626Z,48
2023-04-06T09:41:09.868Z,47
2023-04-06T09:43:12.794Z,45
2023-04-06T09:45:09.605Z,46
2023-04-06T09:47:14.334Z,45
2023-04-06T09:49:09.694Z,46
2023-04-06T09:51:11.281Z,47
2023-04-06T09:53:09.589Z,48
2023-04-06T09:57:10.388Z,46
2023-04-06T09:59:09.994Z,47
2023-04-06T10:01:09.605Z,50
2023-04-06T10:03:10.155Z,49
2023-04-06T10:07:09.578Z,46
2023-04-06T10:09:09.595Z,45
2023-04-06T10:11:09.593Z,45
2023-04-06T10:13:11.280Z,44
2023-04-06T10:15:10.224Z,45
2023-04-06T10:17:09.577Z,47
2023-04-06T10:19:09.568Z,46
2023-04-06T10:25:09.523Z,47
2023-04-06T10:27:09.616Z,46
2023-04-06T10:31:09.631Z,47
2023-04-06T10:33:10.049Z,45
2023-04-06T10:35:09.595Z,46
2023-04-06T10:37:09.591Z,46
2023-04-06T10:39:12.531Z,46
2023-04-06T10:41:09.587Z,47
2023-04-06T10:43:09.659Z,48
2023-04-06T10:45:06.816Z,49
2023-04-06T10:47:09.568Z,47
2023-04-06T10:49:09.546Z,47
2023-04-06T10:51:09.625Z,52
2023-04-06T10:53:09.606Z,50
2023-04-06T10:55:09.578Z,46
2023-04-06T10:57:09.629Z,46
2023-04-06T10:59:11.277Z,46
2023-04-06T11:03:14.358Z,47
2023-04-06T11:05:12.714Z,47
2023-04-06T11:07:09.585Z,49
2023-04-06T11:09:09.594Z,48
2023-04-06T11:11:09.594Z,46
2023-04-06T11:13:09.613Z,47
2023-04-06T11:15:12.803Z,48
2023-04-06T11:17:09.661Z,46
2023-04-06T11:19:09.577Z,46
2023-04-06T11:21:11.208Z,45
2023-04-06T11:23:09.557Z,48
2023-04-06T11:27:11.277Z,50
2023-04-06T11:29:12.800Z,51
2023-04-06T11:31:09.621Z,51
2023-04-06T11:33:09.636Z,48
2023-04-06T11:35:09.538Z,48
2023-04-06T11:37:13.304Z,46
2023-04-06T11:39:09.600Z,46
2023-04-06T11:41:09.557Z,46
2023-04-06T11:43:12.742Z,43
2023-04-06T11:45:12.598Z,45
2023-04-06T11:47:12.718Z,47
2023-04-06T11:49:09.577Z,46
2023-04-06T11:51:09.355Z,46
2023-04-06T11:53:09.534Z,49
2023-04-06T11:55:09.980Z,45
2023-04-06T11:57:09.569Z,50
2023-04-06T11:59:11.781Z,46
2023-04-06T12:01:12.742Z,49
2023-04-06T12:03:09.651Z,48
2023-04-06T12:05:09.633Z,48
2023-04-06T12:07:09.557Z,51
2023-04-06T12:09:09.605Z,58
2023-04-06T12:11:11.289Z,55
2023-04-06T12:15:09.593Z,47
2023-04-06T12:17:09.596Z,51
2023-04-06T12:19:09.841Z,46
2023-04-06T12:21:16.115Z,46
2023-04-06T12:23:15.879Z,52
2023-04-06T12:25:09.584Z,51
2023-04-06T12:29:12.528Z,50
2023-04-06T12:31:09.522Z,50
2023-04-06T12:33:09.648Z,51
2023-04-06T12:35:09.950Z,45
2023-04-06T12:37:09.848Z,52
2023-04-06T12:39:09.572Z,48
2023-04-06T12:41:09.808Z,49
2023-04-06T12:43:14.293Z,50
2023-04-06T12:45:12.542Z,49
2023-04-06T12:47:09.610Z,51
2023-04-06T12:49:09.529Z,45
2023-04-06T12:53:09.573Z,44
2023-04-06T12:55:09.526Z,42
2023-04-06T12:57:09.587Z,42
2023-04-06T12:59:09.620Z,42
2023-04-06T13:01:09.588Z,46
2023-04-06T13:03:09.629Z,44
2023-04-06T13:05:12.552Z,45
2023-04-06T13:07:09.535Z,46
2023-04-06T13:09:09.612Z,44
2023-04-06T13:11:12.745Z,42
2023-04-06T13:13:09.580Z,41
2023-04-06T13:15:12.727Z,41
2023-04-06T13:17:09.698Z,43
2023-04-06T13:19:09.380Z,50
2023-04-06T13:21:09.376Z,44
2023-04-06T13:23:09.864Z,44
2023-04-06T13:25:09.567Z,42
2023-04-06T13:27:09.590Z,42
2023-04-06T13:29:12.484Z,49
2023-04-06T13:31:10.468Z,45
2023-04-06T13:35:12.793Z,44
2023-04-06T13:37:09.553Z,46
2023-04-06T13:39:09.905Z,45
2023-04-06T13:41:09.574Z,51
2023-04-06T13:43:09.739Z,52
2023-04-06T13:45:11.293Z,53
2023-04-06T13:47:12.719Z,45
2023-04-06T13:49:14.276Z,52
2023-04-06T13:51:09.997Z,50
2023-04-06T13:53:13.206Z,46
2023-04-06T13:55:09.952Z,43
2023-04-06T13:57:09.964Z,43
2023-04-06T13:59:10.405Z,44
2023-04-06T14:01:10.187Z,47
2023-04-06T14:03:10.052Z,44
2023-04-06T14:07:09.913Z,47
2023-04-06T14:09:09.979Z,43
2023-04-06T14:11:13.731Z,41
2023-04-06T14:13:09.960Z,43
2023-04-06T14:15:09.974Z,42
2023-04-06T14:17:10.146Z,49
2023-04-06T14:19:10.366Z,50
2023-04-06T14:21:09.990Z,48
2023-04-06T14:23:09.987Z,45
2023-04-06T14:25:10.010Z,41
2023-04-06T14:29:09.945Z,42
2023-04-06T14:31:10.524Z,44
2023-04-06T14:33:09.980Z,44
2023-04-06T14:35:09.971Z,47
2023-04-06T14:37:10.027Z,39
2023-04-06T14:39:09.986Z,44
2023-04-06T14:41:10.328Z,40
2023-04-06T14:43:09.959Z,39
2023-04-06T14:45:10.007Z,46
2023-04-06T14:47:12.869Z,47
2023-04-06T14:49:09.938Z,43
2023-04-06T14:51:10.386Z,44
2023-04-06T14:55:10.015Z,43
2023-04-06T14:57:09.991Z,47
2023-04-06T14:59:10.011Z,40
2023-04-06T15:01:10.011Z,39
2023-04-06T15:03:10.131Z,40
2023-04-06T15:05:11.598Z,39
2023-04-06T15:07:09.982Z,40
2023-04-06T15:09:09.971Z,43
2023-04-06T15:11:09.954Z,39
2023-04-06T15:13:13.261Z,39
2023-04-06T15:19:10.368Z,40
2023-04-06T15:21:10.357Z,44
2023-04-06T15:23:11.696Z,44
2023-04-06T15:25:13.740Z,41
2023-04-06T15:27:10.011Z,41
2023-04-06T15:29:09.989Z,47
2023-04-06T15:33:09.828Z,42
2023-04-06T15:35:09.965Z,43
2023-04-06T15:37:10.327Z,42
2023-04-06T15:39:16.551Z,42
2023-04-06T15:41:09.981Z,40
2023-04-06T15:43:09.969Z,44
2023-04-06T15:45:10.013Z,43
2023-04-06T15:51:10.031Z,40
2023-04-06T15:53:09.974Z,41
2023-04-06T15:55:07.499Z,41
2023-04-06T15:59:10.276Z,41
2023-04-06T16:01:09.958Z,42
2023-04-06T16:03:10.605Z,41
2023-04-06T16:05:09.945Z,42
2023-04-06T16:07:14.722Z,42
2023-04-06T16:09:10.014Z,47
2023-04-06T16:11:16.663Z,49
2023-04-06T16:13:09.945Z,51
2023-04-06T16:15:09.998Z,45
2023-04-06T16:19:13.482Z,44
2023-04-06T16:21:10.018Z,45
2023-04-06T16:23:09.962Z,46
2023-04-06T16:25:10.085Z,47
2023-04-06T16:27:10.016Z,43
2023-04-06T16:31:10.027Z,46
2023-04-06T16:33:10.019Z,45
2023-04-06T16:35:09.961Z,46
2023-04-06T16:37:13.186Z,46
2023-04-06T16:39:09.992Z,45
2023-04-06T16:41:12.908Z,47
2023-04-06T16:43:10.090Z,47
2023-04-06T16:45:10.028Z,51
2023-04-06T16:47:09.990Z,48
2023-04-06T16:49:10.036Z,48
2023-04-06T16:51:10.072Z,47
2023-04-06T16:53:10.015Z,46
2023-04-06T16:55:10.035Z,50
2023-04-06T16:57:14.369Z,48
2023-04-06T17:03:10.125Z,49
2023-04-06T17:05:10.031Z,49
2023-04-06T17:07:10.040Z,48
2023-04-06T17:09:10.033Z,47
2023-04-06T17:11:13.183Z,47
2023-04-06T17:13:13.093Z,47
2023-04-06T17:15:10.003Z,47
2023-04-06T17:17:13.154Z,47
2023-04-06T17:19:09.933Z,48
2023-04-06T17:21:10.052Z,49
2023-04-06T17:23:09.997Z,49
2023-04-06T17:25:09.843Z,49
2023-04-06T17:27:10.042Z,49
2023-04-06T17:29:10.178Z,49
2023-04-06T17:31:10.094Z,49
2023-04-06T17:33:07.243Z,49
2023-04-06T17:35:10.027Z,48
2023-04-06T17:39:11.760Z,47
2023-04-06T17:41:09.978Z,46
2023-04-06T17:45:10.035Z,47
2023-04-06T17:47:10.003Z,48
2023-04-06T17:49:09.991Z,48
2023-04-06T17:51:10.048Z,48
2023-04-06T17:53:09.981Z,47
2023-04-06T17:55:10.315Z,45
2023-04-06T17:57:13.001Z,45
2023-04-06T17:59:09.973Z,45
2023-04-06T18:01:09.983Z,45
2023-04-06T18:03:10.424Z,46
2023-04-06T18:05:10.375Z,47
2023-04-06T18:07:09.966Z,48
2023-04-06T18:09:10.423Z,48
2023-04-06T18:11:13.125Z,47
2023-04-06T18:13:11.590Z,47
2023-04-06T18:15:10.001Z,48
2023-04-06T18:17:10.388Z,48
2023-04-06T18:19:09.998Z,48
2023-04-06T18:21:13.213Z,49
2023-04-06T18:23:16.814Z,49
2023-04-06T18:25:09.985Z,49
2023-04-06T18:27:10.399Z,50
2023-04-06T18:29:10.023Z,50
2023-04-06T18:31:10.075Z,50
2023-04-06T18:33:10.086Z,49
2023-04-06T18:35:09.995Z,50
2023-04-06T18:37:10.027Z,50
2023-04-06T18:39:10.066Z,50
2023-04-06T18:41:09.976Z,51
2023-04-06T18:43:10.371Z,51
2023-04-06T18:45:10.050Z,51
2023-04-06T18:47:09.996Z,51
2023-04-06T18:49:10.002Z,51
2023-04-06T18:51:11.735Z,51
2023-04-06T18:53:09.969Z,51
2023-04-06T18:55:14.932Z,51
2023-04-06T19:01:09.985Z,51
2023-04-06T19:03:10.407Z,52
2023-04-06T19:07:10.398Z,52
2023-04-06T19:09:13.189Z,52
2023-04-06T19:11:10.331Z,52
2023-04-06T19:13:10.025Z,52
2023-04-06T19:15:10.473Z,52
2023-04-06T19:17:10.037Z,51
2023-04-06T19:19:10.038Z,51
2023-04-06T19:21:10.086Z,51
2023-04-06T19:23:10.044Z,50
2023-04-06T19:25:10.048Z,51
2023-04-06T19:27:10.124Z,51
2023-04-06T19:29:10.046Z,51
2023-04-06T19:33:10.092Z,51
2023-04-06T19:35:13.230Z,51
2023-04-06T19:37:10.017Z,51
2023-04-06T19:39:13.313Z,51
2023-04-06T19:41:10.024Z,51
2023-04-06T19:43:11.640Z,50
2023-04-06T19:45:07.266Z,50
2023-04-06T19:47:13.446Z,50
2023-04-06T19:49:11.458Z,50
2023-04-06T19:51:10.075Z,49
2023-04-06T19:53:09.990Z,49
2023-04-06T19:55:13.508Z,48
2023-04-06T19:57:13.493Z,49
2023-04-06T19:59:09.981Z,49
2023-04-06T20:01:10.449Z,49
2023-04-06T20:05:10.000Z,49
2023-04-06T20:09:10.404Z,48
2023-04-06T20:11:10.019Z,48
2023-04-06T20:15:13.249Z,48
2023-04-06T20:17:10.002Z,49
2023-04-06T20:19:10.342Z,48
2023-04-06T20:21:10.043Z,48
2023-04-06T20:23:09.996Z,48
2023-04-06T20:25:10.533Z,49
2023-04-06T20:27:10.054Z,50
2023-04-06T20:29:10.078Z,50
2023-04-06T20:31:10.038Z,50
2023-04-06T20:35:10.006Z,50
2023-04-06T20:37:10.059Z,50
2023-04-06T20:39:10.058Z,50
2023-04-06T20:41:13.281Z,50
2023-04-06T20:43:11.656Z,50
2023-04-06T20:45:10.033Z,50
2023-04-06T20:47:10.004Z,50
2023-04-06T20:49:10.001Z,49
2023-04-06T20:51:10.465Z,49
2023-04-06T20:53:09.803Z,49
2023-04-06T20:55:10.069Z,49
2023-04-06T20:57:13.529Z,49
2023-04-06T20:59:11.918Z,49
2023-04-06T21:01:10.024Z,49
2023-04-06T21:03:13.325Z,49
2023-04-06T21:05:09.989Z,49
2023-04-06T21:07:10.304Z,49
2023-04-06T21:09:10.049Z,49
2023-04-06T21:11:10.382Z,49
2023-04-06T21:13:09.996Z,49
2023-04-06T21:15:10.042Z,49
2023-04-06T21:17:10.052Z,48
2023-04-06T21:19:10.022Z,49
2023-04-06T21:21:13.243Z,48
2023-04-06T21:23:10.053Z,49
2023-04-06T21:25:10.079Z,49
2023-04-06T21:27:10.042Z,49
2023-04-06T21:29:10.013Z,48
2023-04-06T21:31:10.775Z,48
2023-04-06T21:33:10.099Z,48
2023-04-06T21:35:09.995Z,48
2023-04-06T21:37:10.030Z,48
2023-04-06T21:41:10.012Z,48
2023-04-06T21:43:10.046Z,48
2023-04-06T21:47:13.176Z,49
2023-04-06T21:49:10.032Z,50
2023-04-06T21:51:10.086Z,50
2023-04-06T21:53:11.704Z,50
2023-04-06T21:55:10.083Z,50
2023-04-06T21:57:10.131Z,50
2023-04-06T21:59:13.204Z,50
2023-04-06T22:01:10.781Z,50
2023-04-06T22:07:16.140Z,50
2023-04-06T22:09:10.041Z,50
2023-04-06T22:11:10.403Z,50
2023-04-06T22:13:10.145Z,51
2023-04-06T22:15:10.181Z,50
2023-04-06T22:17:10.059Z,51
2023-04-06T22:19:10.041Z,54
2023-04-06T22:21:10.051Z,53
2023-04-06T22:23:10.084Z,57
2023-04-06T22:27:10.113Z,54
2023-04-06T22:29:10.069Z,54
2023-04-06T22:31:10.047Z,55
2023-04-06T22:33:13.437Z,57
2023-04-06T22:35:10.080Z,57
2023-04-06T22:37:13.268Z,58
2023-04-06T22:39:10.142Z,57
2023-04-06T22:41:10.135Z,56
2023-04-06T22:43:10.041Z,56
2023-04-06T22:45:10.149Z,59
2023-04-06T22:47:10.369Z,57
2023-04-06T22:51:10.085Z,56
2023-04-06T22:53:10.066Z,55
2023-04-06T22:55:12.130Z,54
2023-04-06T22:57:10.099Z,54
2023-04-06T22:59:10.078Z,54
2023-04-06T23:01:10.053Z,54
2023-04-06T23:03:10.309Z,54
2023-04-06T23:07:10.039Z,54
2023-04-06T23:09:10.408Z,55
2023-04-06T23:11:13.265Z,58
2023-04-06T23:13:10.063Z,58
2023-04-06T23:15:11.753Z,58
2023-04-06T23:17:13.454Z,58
2023-04-06T23:19:13.236Z,59
2023-04-06T23:23:10.065Z,59
2023-04-06T23:25:10.086Z,59
2023-04-06T23:27:10.102Z,58
2023-04-06T23:29:12.992Z,58
2023-04-06T23:31:10.032Z,58
2023-04-06T23:33:11.798Z,56
2023-04-06T23:35:13.223Z,56
2023-04-06T23:37:10.117Z,58
2023-04-06T23:39:10.135Z,59
2023-04-06T23:41:10.136Z,59
2023-04-06T23:45:10.123Z,63
2023-04-06T23:49:10.072Z,57
2023-04-06T23:51:09.932Z,57
2023-04-06T23:53:10.045Z,57
2023-04-06T23:55:10.035Z,56
2023-04-06T23:57:10.716Z,57
2023-04-06T23:59:10.070Z,57
